Time;durP1;ratioP1;P1;durP2;ratioP2;P2;SDS_P1;SDS_P2;PMS_P1;PMS_P2;Temp;Humidity;BMP_temperature;BMP_pressure;BME280_temperature;BME280_humidity;BME280_pressure;Samples;Min_cycle;Max_cycle;Signal;HPM_P1;HPM_P2
2022/11/14 00:01:25;;;;;;;;;;;;;;;;;;4978038;28;19926;-57
2022/11/14 00:03:51;;;;;;;;;;;;;;;;;;4973389;28;20024;-58
2022/11/14 00:06:17;;;;;;;;;;;;;;;;;;4976800;28;19936;-58
2022/11/14 00:08:43;;;;;;;;;;;;;;;;;;4975052;28;19936;-58
2022/11/14 00:11:09;;;;;;;;;;;;;;;;;;4969022;28;19933;-58
2022/11/14 00:13:35;;;;;;;;;;;;;;;;;;4968668;28;19929;-57
2022/11/14 00:16:01;;;;;;;;;;;;;;;;;;4982257;28;20365;-57
2022/11/14 00:18:27;;;;;;;;;;;;;;;;;;4968818;28;19926;-56
2022/11/14 00:20:53;;;;;;;;;;;;;;;;;;4983234;28;19933;-59
2022/11/14 00:23:19;;;;;;;;;;;;;;;;;;4969212;28;19926;-57
2022/11/14 00:25:45;;;;;;;;;;;;;;;;;;4982855;28;19933;-57
2022/11/14 00:28:11;;;;;;;;;;;;;;;;;;4968480;28;19945;-57
2022/11/14 00:30:37;;;;;;;;;;;;;;;;;;4972348;28;20193;-58
2022/11/14 00:33:03;;;;;;;;;;;;;;;;;;4968707;28;19949;-57
2022/11/14 00:35:29;;;;;;;;;;;;;;;;;;4979081;28;19934;-58
2022/11/14 00:37:55;;;;;;;;;;;;;;;;;;4972376;28;20081;-59
2022/11/14 00:40:21;;;;;;;;;;;;;;;;;;4976792;28;19926;-58
2022/11/14 00:42:47;;;;;;;;;;;;;;;;;;4973671;28;19973;-57
2022/11/14 00:45:13;;;;;;;;;;;;;;;;;;4973768;28;19929;-58
2022/11/14 00:47:39;;;;;;;;;;;;;;;;;;4969994;28;19926;-57
2022/11/14 00:50:05;;;;;;;;;;;;;;;;;;4973026;28;19926;-58
2022/11/14 00:52:31;;;;;;;;;;;;;;;;;;4984186;28;19930;-58
2022/11/14 00:54:57;;;;;;;;;;;;;;;;;;4975529;28;20387;-57
2022/11/14 00:57:23;;;;;;;;;;;;;;;;;;4981971;28;19973;-57
2022/11/14 00:59:48;;;;;;;;;;;;;;;;;;4967666;28;20430;-57
2022/11/14 01:02:14;;;;;;;;;;;;;;;;;;4981760;28;19930;-57
2022/11/14 01:04:40;;;;;;;;;;;;;;;;;;4968455;28;20376;-57
2022/11/14 01:07:06;;;;;;;;;;;;;;;;;;4981735;28;19932;-57
2022/11/14 01:09:32;;;;;;;;;;;;;;;;;;4968174;28;19926;-59
2022/11/14 01:11:58;;;;;;;;;;;;;;;;;;4980707;28;19953;-58
2022/11/14 01:14:24;;;;;;;;;;;;;;;;;;4968806;28;19930;-59
2022/11/14 01:16:50;;;;;;;;;;;;;;;;;;4978980;28;19973;-58
2022/11/14 01:19:16;;;;;;;;;;;;;;;;;;4970719;28;20351;-57
2022/11/14 01:21:42;;;;;;;;;;;;;;;;;;4976920;28;19949;-58
2022/11/14 01:24:08;;;;;;;;;;;;;;;;;;4972925;28;19930;-58
2022/11/14 01:26:34;;;;;;;;;;;;;;;;;;4974732;28;19926;-57
2022/11/14 01:29:00;;;;;;;;;;;;;;;;;;4956868;28;19965;-58
2022/11/14 01:31:26;;;;;;;;;;;;;;;;;;4980897;28;19973;-60
2022/11/14 01:33:52;;;;;;;;;;;;;;;;;;4968641;28;19926;-58
2022/11/14 01:36:18;;;;;;;;;;;;;;;;;;4981565;28;19932;-58
2022/11/14 01:38:44;;;;;;;;;;;;;;;;;;4968056;28;20296;-57
2022/11/14 01:41:10;;;;;;;;;;;;;;;;;;4981097;28;19968;-57
2022/11/14 01:43:36;;;;;;;;;;;;;;;;;;4968811;28;19933;-58
2022/11/14 01:46:02;;;;;;;;;;;;;;;;;;4980170;28;19932;-57
2022/11/14 01:48:28;;;;;;;;;;;;;;;;;;4968733;28;20419;-57
2022/11/14 01:50:54;;;;;;;;;;;;;;;;;;4962461;28;19929;-58
2022/11/14 01:53:20;;;;;;;;;;;;;;;;;;4983211;28;20249;-58
2022/11/14 01:55:46;;;;;;;;;;;;;;;;;;4974489;28;19926;-58
2022/11/14 01:58:12;;;;;;;;;;;;;;;;;;4962434;28;19997;-58
2022/11/14 02:00:38;;;;;;;;;;;;;;;;;;4974372;28;20008;-57
2022/11/14 02:03:04;;;;;;;;;;;;;;;;;;4981654;28;19932;-59
2022/11/14 02:05:30;;;;;;;;;;;;;;;;;;4972960;28;19938;-59
2022/11/14 02:07:56;;;;;;;;;;;;;;;;;;4984118;28;19980;-57
2022/11/14 02:10:22;;;;;;;;;;;;;;;;;;4970614;28;19930;-58
2022/11/14 02:12:48;;;;;;;;;;;;;;;;;;4984971;28;19953;-58
2022/11/14 02:15:14;;;;;;;;;;;;;;;;;;4969937;28;19926;-58
2022/11/14 02:17:40;;;;;;;;;;;;;;;;;;4984946;28;19948;-58
2022/11/14 02:20:06;;;;;;;;;;;;;;;;;;4970593;28;20017;-57
2022/11/14 02:22:32;;;;;;;;;;;;;;;;;;4984313;28;19926;-58
2022/11/14 02:24:58;;;;;;;;;;;;;;;;;;4971686;28;19937;-58
2022/11/14 02:27:24;;;;;;;;;;;;;;;;;;4985171;28;19930;-58
2022/11/14 02:29:50;;;;;;;;;;;;;;;;;;4970732;28;20025;-58
2022/11/14 02:32:16;;;;;;;;;;;;;;;;;;4982404;28;19925;-57
2022/11/14 02:34:42;;;;;;;;;;;;;;;;;;4972700;28;19969;-56
2022/11/14 02:37:08;;;;;;;;;;;;;;;;;;4979785;28;20036;-57
2022/11/14 02:39:34;;;;;;;;;;;;;;;;;;4974706;28;19938;-58
2022/11/14 02:42:00;;;;;;;;;;;;;;;;;;4978962;28;20017;-59
2022/11/14 02:44:26;;;;;;;;;;;;;;;;;;4975511;28;20399;-58
2022/11/14 02:46:52;;;;;;;;;;;;;;;;;;4976670;28;19922;-58
2022/11/14 02:49:18;;;;;;;;;;;;;;;;;;4978244;28;19934;-58
2022/11/14 02:51:44;;;;;;;;;;;;;;;;;;4973853;28;20327;-58
2022/11/14 02:54:10;;;;;;;;;;;;;;;;;;4970331;28;19926;-58
2022/11/14 02:56:36;;;;;;;;;;;;;;;;;;4982351;28;19930;-58
2022/11/14 02:59:02;;;;;;;;;;;;;;;;;;4972116;28;19923;-57
2022/11/14 03:01:28;;;;;;;;;;;;;;;;;;4979460;28;19936;-57
2022/11/14 03:03:54;;;;;;;;;;;;;;;;;;4973991;28;19930;-58
2022/11/14 03:06:20;;;;;;;;;;;;;;;;;;4977753;28;20013;-59
2022/11/14 03:08:46;;;;;;;;;;;;;;;;;;4981756;28;19929;-58
2022/11/14 03:11:12;;;;;;;;;;;;;;;;;;4971188;28;19922;-58
2022/11/14 03:13:38;;;;;;;;;;;;;;;;;;4970646;28;19937;-57
2022/11/14 03:16:04;;;;;;;;;;;;;;;;;;4969616;28;20392;-59
2022/11/14 03:18:30;;;;;;;;;;;;;;;;;;4970081;28;20014;-57
2022/11/14 03:20:56;;;;;;;;;;;;;;;;;;4972862;28;19926;-56
2022/11/14 03:23:22;;;;;;;;;;;;;;;;;;4980221;28;20336;-57
2022/11/14 03:25:48;;;;;;;;;;;;;;;;;;4970016;28;19926;-57
2022/11/14 03:28:14;;;;;;;;;;;;;;;;;;4970108;28;19926;-58
2022/11/14 03:30:40;;;;;;;;;;;;;;;;;;4969127;28;19989;-57
2022/11/14 03:33:06;;;;;;;;;;;;;;;;;;4969570;28;19933;-58
2022/11/14 03:35:31;;;;;;;;;;;;;;;;;;4981343;28;20352;-57
2022/11/14 03:37:57;;;;;;;;;;;;;;;;;;4972226;28;20017;-57
2022/11/14 03:40:23;;;;;;;;;;;;;;;;;;4978979;28;20406;-57
2022/11/14 03:42:49;;;;;;;;;;;;;;;;;;4973627;28;19929;-57
2022/11/14 03:45:15;;;;;;;;;;;;;;;;;;4968813;28;20749;-57
2022/11/14 03:47:41;;;;;;;;;;;;;;;;;;4982436;28;19933;-57
2022/11/14 03:50:07;;;;;;;;;;;;;;;;;;4969957;28;19969;-57
2022/11/14 03:52:33;;;;;;;;;;;;;;;;;;4963216;28;20292;-59
2022/11/14 03:54:59;;;;;;;;;;;;;;;;;;4954713;28;19977;-58
2022/11/14 03:57:25;;;;;;;;;;;;;;;;;;4978236;28;19932;-58
2022/11/14 03:59:51;;;;;;;;;;;;;;;;;;4973030;28;19996;-57
2022/11/14 04:02:17;;;;;;;;;;;;;;;;;;4975972;28;19957;-57
2022/11/14 04:04:43;;;;;;;;;;;;;;;;;;4976075;28;20592;-57
2022/11/14 04:07:09;;;;;;;;;;;;;;;;;;4974509;28;19922;-58
2022/11/14 04:09:35;;;;;;;;;;;;;;;;;;4977688;28;20018;-57
2022/11/14 04:12:01;;;;;;;;;;;;;;;;;;4973124;28;20016;-57
2022/11/14 04:14:27;;;;;;;;;;;;;;;;;;4978382;28;20690;-58
2022/11/14 04:16:53;;;;;;;;;;;;;;;;;;4969670;28;19930;-57
2022/11/14 04:19:19;;;;;;;;;;;;;;;;;;4974300;28;19922;-57
2022/11/14 04:21:45;;;;;;;;;;;;;;;;;;4976739;28;19926;-57
2022/11/14 04:24:11;;;;;;;;;;;;;;;;;;4973205;28;20339;-58
2022/11/14 04:26:37;;;;;;;;;;;;;;;;;;4977810;28;19969;-58
2022/11/14 04:29:03;;;;;;;;;;;;;;;;;;4971165;28;20670;-58
2022/11/14 04:31:29;;;;;;;;;;;;;;;;;;4979392;28;19922;-57
2022/11/14 04:33:55;;;;;;;;;;;;;;;;;;4969735;28;19926;-58
2022/11/14 04:36:21;;;;;;;;;;;;;;;;;;4981697;28;19926;-57
2022/11/14 04:38:47;;;;;;;;;;;;;;;;;;4951616;28;19990;-58
2022/11/14 04:41:13;;;;;;;;;;;;;;;;;;4982453;28;19933;-57
2022/11/14 04:43:39;;;;;;;;;;;;;;;;;;4968768;28;20037;-57
2022/11/14 04:46:05;;;;;;;;;;;;;;;;;;4980747;28;19933;-58
2022/11/14 04:48:31;;;;;;;;;;;;;;;;;;4968979;28;19926;-58
2022/11/14 04:50:57;;;;;;;;;;;;;;;;;;4964878;28;20704;-57
2022/11/14 04:53:23;;;;;;;;;;;;;;;;;;4968583;28;19926;-58
2022/11/14 04:55:49;;;;;;;;;;;;;;;;;;4981309;28;19926;-57
2022/11/14 04:58:15;;;;;;;;;;;;;;;;;;4969027;28;19960;-58
2022/11/14 05:00:41;;;;;;;;;;;;;;;;;;4977861;28;19925;-58
2022/11/14 05:03:07;;;;;;;;;;;;;;;;;;4971139;28;19976;-57
2022/11/14 05:05:33;;;;;;;;;;;;;;;;;;4977798;28;19926;-58
2022/11/14 05:07:59;;;;;;;;;;;;;;;;;;4973208;28;19977;-57
2022/11/14 05:10:25;;;;;;;;;;;;;;;;;;4975343;28;19930;-56
2022/11/14 05:12:51;;;;;;;;;;;;;;;;;;4974776;28;20366;-57
2022/11/14 05:15:17;;;;;;;;;;;;;;;;;;4954315;28;19926;-57
2022/11/14 05:17:43;;;;;;;;;;;;;;;;;;4983936;28;20342;-57
2022/11/14 05:20:09;;;;;;;;;;;;;;;;;;4974498;28;20017;-57
2022/11/14 05:22:35;;;;;;;;;;;;;;;;;;4981862;28;20435;-58
2022/11/14 05:25:01;;;;;;;;;;;;;;;;;;4951557;28;19981;-58
2022/11/14 05:27:27;;;;;;;;;;;;;;;;;;4981408;28;19973;-58
2022/11/14 05:29:54;;;;;;;;;;;;;;;;;;4966783;28;20407;-58
2022/11/14 05:32:20;;;;;;;;;;;;;;;;;;4984942;28;19987;-57
2022/11/14 05:34:46;;;;;;;;;;;;;;;;;;4971881;28;20399;-58
2022/11/14 05:37:12;;;;;;;;;;;;;;;;;;4985354;28;19925;-58
2022/11/14 05:39:38;;;;;;;;;;;;;;;;;;4971944;28;19926;-58
2022/11/14 05:42:05;;;;;;;;;;;;;;;;;;4971507;28;19933;-57
2022/11/14 05:44:31;;;;;;;;;;;;;;;;;;4974801;28;19928;-58
2022/11/14 05:46:57;;;;;;;;;;;;;;;;;;4981679;28;19926;-58
2022/11/14 05:49:23;;;;;;;;;;;;;;;;;;4973932;28;19934;-58
2022/11/14 05:51:49;;;;;;;;;;;;;;;;;;4983653;28;20008;-57
2022/11/14 05:54:15;;;;;;;;;;;;;;;;;;4971317;28;19927;-57
2022/11/14 05:56:41;;;;;;;;;;;;;;;;;;4984758;28;19977;-58
2022/11/14 05:59:07;;;;;;;;;;;;;;;;;;4970522;28;20021;-59
2022/11/14 06:01:33;;;;;;;;;;;;;;;;;;4985659;28;19926;-57
2022/11/14 06:03:59;;;;;;;;;;;;;;;;;;4971775;28;19930;-57
2022/11/14 06:06:25;;;;;;;;;;;;;;;;;;4984830;28;19933;-58
2022/11/14 06:08:51;;;;;;;;;;;;;;;;;;4971487;28;19933;-58
2022/11/14 06:11:17;;;;;;;;;;;;;;;;;;4984333;28;20457;-57
2022/11/14 06:13:43;;;;;;;;;;;;;;;;;;4949209;28;19927;-58
2022/11/14 06:16:09;;;;;;;;;;;;;;;;;;4943950;29;19989;-58
2022/11/14 06:18:34;;;;;;;;;;;;;;;;;;4946542;29;20440;-59
2022/11/14 06:21:00;;;;;;;;;;;;;;;;;;4944884;29;19922;-57
2022/11/14 06:23:26;;;;;;;;;;;;;;;;;;4940642;29;19974;-57
2022/11/14 06:25:52;;;;;;;;;;;;;;;;;;4933139;29;19973;-58
2022/11/14 06:28:18;;;;;;;;;;;;;;;;;;4941271;29;19931;-57
2022/11/14 06:33:49;;;;;;;;;;;;;;;;;;4935732;29;20454;-58
2022/11/14 06:42:22;;;;;;;;;;;;;;;;;;4942991;29;19921;-57
2022/11/14 06:44:48;;;;;;;;;;;;;;;;;;4935374;29;20297;-58
2022/11/14 06:47:14;;;;;;;;;;;;;;;;;;4935957;29;19959;-58
2022/11/14 06:49:40;;;;;;;;;;;;;;;;;;4934026;28;19927;-58
2022/11/14 06:52:06;;;;;;;;;;;;;;;;;;4933683;29;19943;-56
2022/11/14 06:54:32;;;;;;;;;;;;;;;;;;4934917;29;20029;-57
2022/11/14 06:56:58;;;;;;;;;;;;;;;;;;4933157;29;20295;-57
2022/11/14 06:59:24;;;;;;;;;;;;;;;;;;4941628;29;19930;-57
2022/11/14 07:01:50;;;;;;;;;;;;;;;;;;4949953;29;19922;-57
2022/11/14 07:04:16;;;;;;;;;;;;;;;;;;4950414;29;19985;-58
2022/11/14 07:06:42;;;;;;;;;;;;;;;;;;4949486;28;19965;-57
2022/11/14 07:09:08;;;;;;;;;;;;;;;;;;4950121;29;20013;-58
2022/11/14 07:11:34;;;;;;;;;;;;;;;;;;4948269;29;20341;-59
2022/11/14 07:14:00;;;;;;;;;;;;;;;;;;4960670;28;19926;-57
2022/11/14 07:16:28;;;;;;;;;;;;;;;;;;4987412;28;19926;-58
2022/11/14 07:18:54;;;;;;;;;;;;;;;;;;4972424;28;19937;-57
2022/11/14 07:21:20;;;;;;;;;;;;;;;;;;4978918;28;19926;-57
2022/11/14 07:23:46;;;;;;;;;;;;;;;;;;4974554;28;19953;-56
2022/11/14 07:26:12;;;;;;;;;;;;;;;;;;4976470;28;19940;-57
2022/11/14 07:28:38;;;;;;;;;;;;;;;;;;4975867;28;19942;-57
2022/11/14 07:31:04;;;;;;;;;;;;;;;;;;4975113;28;19933;-57
2022/11/14 07:33:30;;;;;;;;;;;;;;;;;;4978928;28;20404;-58
2022/11/14 07:35:56;;;;;;;;;;;;;;;;;;4973455;28;19926;-57
2022/11/14 07:38:22;;;;;;;;;;;;;;;;;;4979830;28;19965;-58
2022/11/14 07:40:48;;;;;;;;;;;;;;;;;;4971008;28;19926;-57
2022/11/14 07:43:14;;;;;;;;;;;;;;;;;;4981562;28;19927;-58
2022/11/14 07:45:40;;;;;;;;;;;;;;;;;;4969340;28;19966;-56
2022/11/14 07:48:06;;;;;;;;;;;;;;;;;;4983304;28;19934;-57
2022/11/14 07:50:32;;;;;;;;;;;;;;;;;;4969980;28;19926;-57
2022/11/14 07:52:58;;;;;;;;;;;;;;;;;;4983050;28;19926;-57
2022/11/14 07:55:24;;;;;;;;;;;;;;;;;;4969015;28;19930;-58
2022/11/14 07:57:50;;;;;;;;;;;;;;;;;;4983236;28;20049;-58
2022/11/14 08:00:16;;;;;;;;;;;;;;;;;;4968575;28;20013;-57
2022/11/14 08:02:42;;;;;;;;;;;;;;;;;;4983136;28;19922;-57
2022/11/14 08:05:08;;;;;;;;;;;;;;;;;;4969399;28;19997;-57
2022/11/14 08:07:34;;;;;;;;;;;;;;;;;;4980292;28;20021;-59
2022/11/14 08:10:00;;;;;;;;;;;;;;;;;;4971626;28;20299;-57
2022/11/14 08:12:26;;;;;;;;;;;;;;;;;;4978893;28;20356;-57
2022/11/14 08:14:52;;;;;;;;;;;;;;;;;;4972197;28;19933;-58
2022/11/14 08:17:18;;;;;;;;;;;;;;;;;;4972998;28;20017;-57
2022/11/14 08:19:44;;;;;;;;;;;;;;;;;;4978649;28;20339;-57
2022/11/14 08:22:10;;;;;;;;;;;;;;;;;;4972302;28;19926;-57
2022/11/14 08:24:36;;;;;;;;;;;;;;;;;;4976926;28;19981;-58
2022/11/14 08:27:02;;;;;;;;;;;;;;;;;;4975480;28;19926;-56
2022/11/14 08:29:28;;;;;;;;;;;;;;;;;;4974111;28;19976;-57
2022/11/14 08:31:54;;;;;;;;;;;;;;;;;;4976868;28;19930;-56
2022/11/14 08:34:21;;;;;;;;;;;;;;;;;;4972277;28;19930;-57
2022/11/14 08:36:47;;;;;;;;;;;;;;;;;;4978154;28;20399;-57
2022/11/14 08:39:13;;;;;;;;;;;;;;;;;;4953302;28;19953;-57
2022/11/14 08:41:39;;;;;;;;;;;;;;;;;;4980396;28;20012;-57
2022/11/14 08:44:05;;;;;;;;;;;;;;;;;;4950996;28;20016;-59
2022/11/14 08:46:31;;;;;;;;;;;;;;;;;;4982539;28;19977;-57
2022/11/14 08:48:57;;;;;;;;;;;;;;;;;;4951240;28;19926;-57
2022/11/14 08:51:23;;;;;;;;;;;;;;;;;;4981895;28;20008;-56
2022/11/14 08:53:51;;;;;;;;;;;;;;;;;;4968657;28;19926;-57
2022/11/14 08:56:17;;;;;;;;;;;;;;;;;;4982199;28;19945;-57
2022/11/14 08:58:43;;;;;;;;;;;;;;;;;;4967867;28;19930;-56
2022/11/14 09:01:09;;;;;;;;;;;;;;;;;;4982390;28;19936;-58
2022/11/14 09:03:35;;;;;;;;;;;;;;;;;;4968223;28;19930;-57
2022/11/14 09:06:01;;;;;;;;;;;;;;;;;;4981039;28;19953;-56
2022/11/14 09:08:27;;;;;;;;;;;;;;;;;;4968993;28;20388;-57
2022/11/14 09:10:54;;;;;;;;;;;;;;;;;;4978726;28;22266;-58
2022/11/14 09:13:21;;;;;;;;;;;;;;;;;;4952455;28;20013;-56
2022/11/14 09:15:47;;;;;;;;;;;;;;;;;;4977485;28;20008;-56
2022/11/14 09:18:14;;;;;;;;;;;;;;;;;;4982817;28;20012;-57
2022/11/14 09:20:40;;;;;;;;;;;;;;;;;;4974053;28;20012;-56
2022/11/14 09:23:06;;;;;;;;;;;;;;;;;;4978303;28;20029;-58
2022/11/14 09:25:32;;;;;;;;;;;;;;;;;;4970087;28;19926;-57
2022/11/14 09:27:58;;;;;;;;;;;;;;;;;;4980373;28;19922;-57
2022/11/14 09:30:24;;;;;;;;;;;;;;;;;;4967415;28;19937;-57
2022/11/14 09:32:50;;;;;;;;;;;;;;;;;;4981692;28;19926;-57
2022/11/14 09:35:16;;;;;;;;;;;;;;;;;;4968057;28;20500;-57
2022/11/14 09:37:42;;;;;;;;;;;;;;;;;;4981569;28;19926;-57
2022/11/14 09:40:08;;;;;;;;;;;;;;;;;;4968230;28;19922;-58
2022/11/14 09:42:34;;;;;;;;;;;;;;;;;;4981870;28;20301;-59
2022/11/14 09:45:01;;;;;;;;;;;;;;;;;;4967836;28;19926;-57
2022/11/14 09:47:27;;;;;;;;;;;;;;;;;;4981312;28;19922;-56
2022/11/14 09:49:53;;;;;;;;;;;;;;;;;;4968478;28;19933;-56
2022/11/14 09:52:19;;;;;;;;;;;;;;;;;;4979960;28;19922;-58
2022/11/14 09:54:45;;;;;;;;;;;;;;;;;;4969670;28;20009;-56
2022/11/14 09:57:11;;;;;;;;;;;;;;;;;;4977936;28;19926;-58
2022/11/14 09:59:37;;;;;;;;;;;;;;;;;;4970460;28;19933;-57
2022/11/14 10:02:03;;;;;;;;;;;;;;;;;;4976446;28;20016;-57
2022/11/14 10:04:29;;;;;;;;;;;;;;;;;;4973958;28;19926;-57
2022/11/14 10:06:55;;;;;;;;;;;;;;;;;;4974165;28;19926;-58
2022/11/14 10:09:21;;;;;;;;;;;;;;;;;;4975603;28;20335;-57
2022/11/14 10:11:47;;;;;;;;;;;;;;;;;;4972061;28;19928;-57
2022/11/14 10:14:13;;;;;;;;;;;;;;;;;;4975602;28;19956;-57
2022/11/14 10:16:39;;;;;;;;;;;;;;;;;;4970181;28;19934;-57
2022/11/14 10:19:05;;;;;;;;;;;;;;;;;;4956066;28;19926;-57
2022/11/14 10:21:31;;;;;;;;;;;;;;;;;;4980860;28;20435;-57
2022/11/14 10:23:57;;;;;;;;;;;;;;;;;;4973850;28;19927;-58
2022/11/14 10:26:23;;;;;;;;;;;;;;;;;;4982076;28;19970;-57
2022/11/14 10:28:49;;;;;;;;;;;;;;;;;;4970876;28;19984;-57
2022/11/14 10:31:15;;;;;;;;;;;;;;;;;;4984031;28;20490;-57
2022/11/14 10:33:41;;;;;;;;;;;;;;;;;;4971220;28;19930;-57
2022/11/14 10:36:07;;;;;;;;;;;;;;;;;;4984328;28;19926;-58
2022/11/14 10:38:33;;;;;;;;;;;;;;;;;;4971510;28;19933;-57
2022/11/14 10:41:00;;;;;;;;;;;;;;;;;;4985018;28;19966;-57
2022/11/14 10:43:26;;;;;;;;;;;;;;;;;;4978313;28;19932;-57
2022/11/14 10:45:52;;;;;;;;;;;;;;;;;;4975642;28;19926;-57
2022/11/14 10:48:18;;;;;;;;;;;;;;;;;;4977169;28;19922;-56
2022/11/14 10:50:44;;;;;;;;;;;;;;;;;;4977759;28;19926;-57
2022/11/14 10:53:10;;;;;;;;;;;;;;;;;;4975216;28;19921;-56
2022/11/14 10:55:36;;;;;;;;;;;;;;;;;;4979135;28;20424;-57
2022/11/14 10:58:02;;;;;;;;;;;;;;;;;;4972761;28;19981;-57
2022/11/14 11:00:28;;;;;;;;;;;;;;;;;;4981035;28;20395;-57
2022/11/14 11:02:54;;;;;;;;;;;;;;;;;;4971644;28;19937;-57
2022/11/14 11:05:20;;;;;;;;;;;;;;;;;;4982668;28;19973;-58
2022/11/14 11:13:15;;;;;;;;;;;;;;;;;;4983086;28;19933;-57
2022/11/14 11:15:41;;;;;;;;;;;;;;;;;;4970177;28;20280;-57
2022/11/14 11:18:08;;;;;;;;;;;;;;;;;;4973407;28;20017;-57
2022/11/14 11:20:34;;;;;;;;;;;;;;;;;;4984093;28;19973;-59
2022/11/14 11:23:00;;;;;;;;;;;;;;;;;;4970801;28;19972;-58
2022/11/14 11:25:26;;;;;;;;;;;;;;;;;;4983811;28;19968;-57
2022/11/14 11:27:52;;;;;;;;;;;;;;;;;;4969604;28;19926;-57
2022/11/14 11:30:18;;;;;;;;;;;;;;;;;;4981864;28;20087;-56
2022/11/14 11:32:44;;;;;;;;;;;;;;;;;;4970864;28;20359;-56
2022/11/14 11:35:10;;;;;;;;;;;;;;;;;;4980791;28;20545;-57
2022/11/14 11:37:38;;;;;;;;;;;;;;;;;;4972925;28;20407;-56
2022/11/14 11:40:04;;;;;;;;;;;;;;;;;;4979096;28;19926;-57
2022/11/14 11:42:30;;;;;;;;;;;;;;;;;;4957067;28;19980;-57
2022/11/14 11:44:57;;;;;;;;;;;;;;;;;;4975996;28;19933;-57
2022/11/14 11:47:23;;;;;;;;;;;;;;;;;;4958487;28;20359;-57
2022/11/14 11:49:49;;;;;;;;;;;;;;;;;;4975420;28;19948;-57
2022/11/14 11:52:15;;;;;;;;;;;;;;;;;;4977687;28;19926;-56
2022/11/14 11:54:41;;;;;;;;;;;;;;;;;;4973011;28;19956;-57
2022/11/14 11:57:07;;;;;;;;;;;;;;;;;;4979462;28;19926;-58
2022/11/14 11:59:33;;;;;;;;;;;;;;;;;;4968297;28;19926;-57
2022/11/14 12:01:59;;;;;;;;;;;;;;;;;;4977635;28;19934;-58
2022/11/14 12:04:25;;;;;;;;;;;;;;;;;;4975325;28;19926;-58
2022/11/14 12:06:51;;;;;;;;;;;;;;;;;;4975133;28;20016;-58
2022/11/14 12:09:17;;;;;;;;;;;;;;;;;;4977323;28;19930;-57
2022/11/14 12:11:43;;;;;;;;;;;;;;;;;;4973094;28;19930;-57
2022/11/14 12:14:09;;;;;;;;;;;;;;;;;;4977205;28;20037;-57
2022/11/14 12:16:35;;;;;;;;;;;;;;;;;;4970467;28;19953;-58
2022/11/14 12:19:01;;;;;;;;;;;;;;;;;;4974113;28;19993;-58
2022/11/14 12:21:27;;;;;;;;;;;;;;;;;;4981967;28;20375;-58
2022/11/14 12:23:53;;;;;;;;;;;;;;;;;;4967606;28;20798;-58
2022/11/14 12:26:20;;;;;;;;;;;;;;;;;;4967371;28;19934;-59
2022/11/14 12:28:45;;;;;;;;;;;;;;;;;;4975766;28;19979;-58
2022/11/14 12:31:11;;;;;;;;;;;;;;;;;;4971524;28;20343;-57
2022/11/14 12:33:37;;;;;;;;;;;;;;;;;;4981092;28;19925;-58
2022/11/14 12:36:03;;;;;;;;;;;;;;;;;;4983943;28;20392;-60
2022/11/14 12:38:29;;;;;;;;;;;;;;;;;;4971842;28;19941;-58
2022/11/14 12:40:55;;;;;;;;;;;;;;;;;;4968996;28;19922;-57
2022/11/14 12:43:21;;;;;;;;;;;;;;;;;;4968373;28;20298;-59
2022/11/14 12:45:47;;;;;;;;;;;;;;;;;;4976818;28;19996;-58
2022/11/14 12:48:13;;;;;;;;;;;;;;;;;;4968158;28;20388;-58
2022/11/14 12:50:39;;;;;;;;;;;;;;;;;;4978511;28;20004;-58
2022/11/14 12:53:05;;;;;;;;;;;;;;;;;;4979831;28;19929;-58
2022/11/14 12:55:31;;;;;;;;;;;;;;;;;;4977522;28;19927;-58
2022/11/14 12:57:57;;;;;;;;;;;;;;;;;;4981110;28;20380;-58
2022/11/14 13:00:23;;;;;;;;;;;;;;;;;;4968265;28;20001;-58
2022/11/14 13:02:49;;;;;;;;;;;;;;;;;;4982464;28;19933;-57
2022/11/14 13:05:16;;;;;;;;;;;;;;;;;;4968186;28;19930;-59
2022/11/14 13:07:42;;;;;;;;;;;;;;;;;;4981701;28;19926;-57
2022/11/14 13:10:08;;;;;;;;;;;;;;;;;;4968664;28;19930;-58
2022/11/14 13:23:32;;;;;;;;;;;;;;;;;;4975220;28;20304;-59
2022/11/14 13:25:58;;;;;;;;;;;;;;;;;;4972819;28;20380;-58
2022/11/14 13:28:24;;;;;;;;;;;;;;;;;;4976262;28;19930;-58
2022/11/14 13:30:50;;;;;;;;;;;;;;;;;;4971298;28;20391;-59
2022/11/14 13:33:16;;;;;;;;;;;;;;;;;;4978454;28;19977;-59
2022/11/14 13:35:42;;;;;;;;;;;;;;;;;;4969426;28;19999;-59
2022/11/14 13:38:08;;;;;;;;;;;;;;;;;;4963048;28;19926;-59
2022/11/14 13:40:34;;;;;;;;;;;;;;;;;;4967847;28;19926;-61
2022/11/14 13:43:00;;;;;;;;;;;;;;;;;;4981576;28;19933;-59
2022/11/14 13:45:26;;;;;;;;;;;;;;;;;;4968149;28;19933;-59
2022/11/14 13:47:52;;;;;;;;;;;;;;;;;;4981548;28;19945;-59
2022/11/14 13:50:18;;;;;;;;;;;;;;;;;;4967773;28;20024;-59
2022/11/14 13:52:44;;;;;;;;;;;;;;;;;;4984106;28;19926;-59
2022/11/14 13:55:10;;;;;;;;;;;;;;;;;;4971187;28;19992;-60
2022/11/14 13:57:36;;;;;;;;;;;;;;;;;;4967191;28;20389;-59
2022/11/14 14:00:02;;;;;;;;;;;;;;;;;;4972536;28;19922;-59
2022/11/14 14:02:28;;;;;;;;;;;;;;;;;;4983252;28;20287;-59
2022/11/14 14:04:54;;;;;;;;;;;;;;;;;;4978403;28;20435;-59
2022/11/14 14:07:20;;;;;;;;;;;;;;;;;;4975876;28;20335;-59
2022/11/14 14:09:46;;;;;;;;;;;;;;;;;;4971366;28;19926;-59
2022/11/14 14:12:12;;;;;;;;;;;;;;;;;;4971188;28;19922;-59
2022/11/14 14:14:38;;;;;;;;;;;;;;;;;;4970384;28;20387;-59
2022/11/14 14:17:04;;;;;;;;;;;;;;;;;;4971607;28;19934;-61
2022/11/14 14:19:30;;;;;;;;;;;;;;;;;;4979087;28;19926;-59
2022/11/14 14:21:56;;;;;;;;;;;;;;;;;;4976951;28;19926;-59
2022/11/14 14:24:22;;;;;;;;;;;;;;;;;;4971098;28;19922;-58
2022/11/14 14:26:54;;;;;;;;;;;;;;;;;;4978717;28;20300;-59
2022/11/14 14:29:20;;;;;;;;;;;;;;;;;;4970240;28;19926;-60
2022/11/14 14:31:46;;;;;;;;;;;;;;;;;;4973888;28;19928;-59
2022/11/14 14:34:12;;;;;;;;;;;;;;;;;;4950121;28;20384;-59
2022/11/14 14:36:38;;;;;;;;;;;;;;;;;;4971135;28;19926;-60
2022/11/14 14:39:04;;;;;;;;;;;;;;;;;;4977703;28;19980;-61
2022/11/14 14:41:30;;;;;;;;;;;;;;;;;;4978636;28;19930;-59
2022/11/14 14:43:56;;;;;;;;;;;;;;;;;;4954684;28;19926;-60
2022/11/14 14:46:22;;;;;;;;;;;;;;;;;;4972805;28;19973;-59
2022/11/14 14:48:48;;;;;;;;;;;;;;;;;;4977981;28;20403;-59
2022/11/14 14:51:14;;;;;;;;;;;;;;;;;;4981024;28;19936;-59
2022/11/14 14:53:40;;;;;;;;;;;;;;;;;;4975082;28;19981;-59
2022/11/14 14:56:07;;;;;;;;;;;;;;;;;;4975019;28;20020;-60
2022/11/14 14:58:33;;;;;;;;;;;;;;;;;;4971617;28;19953;-59
2022/11/14 15:00:59;;;;;;;;;;;;;;;;;;4972793;28;19926;-59
2022/11/14 15:03:25;;;;;;;;;;;;;;;;;;4976681;28;19976;-58
2022/11/14 15:05:51;;;;;;;;;;;;;;;;;;4967970;28;20281;-59
2022/11/14 15:08:17;;;;;;;;;;;;;;;;;;4967679;28;20626;-58
2022/11/14 15:10:43;;;;;;;;;;;;;;;;;;4967336;28;20440;-60
2022/11/14 15:13:09;;;;;;;;;;;;;;;;;;4966686;28;19926;-60
2022/11/14 15:15:35;;;;;;;;;;;;;;;;;;4967479;28;20649;-59
2022/11/14 15:18:01;;;;;;;;;;;;;;;;;;4970212;28;19930;-59
2022/11/14 15:20:27;;;;;;;;;;;;;;;;;;4973390;28;20388;-59
2022/11/14 15:22:53;;;;;;;;;;;;;;;;;;4973911;28;19930;-59
2022/11/14 15:25:19;;;;;;;;;;;;;;;;;;4971499;28;19933;-59
2022/11/14 15:27:45;;;;;;;;;;;;;;;;;;4975062;28;19933;-59
2022/11/14 15:30:11;;;;;;;;;;;;;;;;;;4971286;28;19930;-59
2022/11/14 15:32:37;;;;;;;;;;;;;;;;;;4963319;28;19933;-59
2022/11/14 15:35:03;;;;;;;;;;;;;;;;;;4981920;28;19929;-61
2022/11/14 15:37:31;;;;;;;;;;;;;;;;;;4979098;28;20400;-60
2022/11/14 15:39:57;;;;;;;;;;;;;;;;;;4982604;28;19925;-60
2022/11/14 15:42:25;;;;;;;;;;;;;;;;;;4977072;28;19930;-59
2022/11/14 15:44:51;;;;;;;;;;;;;;;;;;4982581;28;19936;-59
2022/11/14 15:47:17;;;;;;;;;;;;;;;;;;4978954;28;20012;-60
2022/11/14 15:49:43;;;;;;;;;;;;;;;;;;4980777;28;19929;-59
2022/11/14 15:52:09;;;;;;;;;;;;;;;;;;4986191;28;20016;-59
2022/11/14 15:54:36;;;;;;;;;;;;;;;;;;4985878;28;19981;-60
2022/11/14 15:57:02;;;;;;;;;;;;;;;;;;4985533;28;20346;-60
2022/11/14 15:59:29;;;;;;;;;;;;;;;;;;4985744;28;20387;-59
2022/11/14 16:01:55;;;;;;;;;;;;;;;;;;4976808;28;20016;-59
2022/11/14 16:04:21;;;;;;;;;;;;;;;;;;4974903;28;19984;-60
2022/11/14 16:06:47;;;;;;;;;;;;;;;;;;4976836;28;19930;-60
2022/11/14 16:09:13;;;;;;;;;;;;;;;;;;4977397;28;20843;-59
2022/11/14 16:11:39;;;;;;;;;;;;;;;;;;4980628;28;19937;-60
2022/11/14 16:14:05;;;;;;;;;;;;;;;;;;4965868;28;20017;-61
2022/11/14 16:16:31;;;;;;;;;;;;;;;;;;4966421;28;19981;-60
2022/11/14 16:18:57;;;;;;;;;;;;;;;;;;4980176;28;19930;-59
2022/11/14 16:21:23;;;;;;;;;;;;;;;;;;4975743;28;19936;-59
2022/11/14 16:23:49;;;;;;;;;;;;;;;;;;4953667;28;19930;-56
2022/11/14 16:26:15;;;;;;;;;;;;;;;;;;4972851;28;19930;-56
2022/11/14 16:28:41;;;;;;;;;;;;;;;;;;4967326;28;19985;-56
2022/11/14 16:31:07;;;;;;;;;;;;;;;;;;4966525;28;19930;-55
2022/11/14 16:33:33;;;;;;;;;;;;;;;;;;4967129;28;19941;-54
2022/11/14 16:35:59;;;;;;;;;;;;;;;;;;4969116;28;19941;-56
2022/11/14 16:38:25;;;;;;;;;;;;;;;;;;4969554;28;20651;-54
2022/11/14 16:40:51;;;;;;;;;;;;;;;;;;4975843;28;19930;-56
2022/11/14 16:43:17;;;;;;;;;;;;;;;;;;4971338;28;19930;-56
2022/11/14 16:45:43;;;;;;;;;;;;;;;;;;4967589;28;19996;-56
2022/11/14 16:48:09;;;;;;;;;;;;;;;;;;4979176;28;19930;-55
2022/11/14 16:50:35;;;;;;;;;;;;;;;;;;4971701;28;19926;-56
2022/11/14 16:53:01;;;;;;;;;;;;;;;;;;4972367;28;19980;-57
2022/11/14 16:55:27;;;;;;;;;;;;;;;;;;4974491;28;19930;-55
2022/11/14 16:57:53;;;;;;;;;;;;;;;;;;4969026;28;20497;-56
2022/11/14 17:00:19;;;;;;;;;;;;;;;;;;4965042;28;19926;-56
2022/11/14 17:02:46;;;;;;;;;;;;;;;;;;4969775;28;19934;-56